createdAt,value
2023-08-30T00:00:00.606Z,100.00
2023-08-30T00:01:00.742Z,100.00
2023-08-30T00:02:00.573Z,100.00
2023-08-30T00:03:00.598Z,100.00
2023-08-30T00:04:00.611Z,100.00
2023-08-30T00:05:00.564Z,100.00
2023-08-30T00:06:00.577Z,100.00
2023-08-30T00:07:00.502Z,100.00
2023-08-30T00:08:00.510Z,100.00
2023-08-30T00:09:00.514Z,100.00
2023-08-30T00:10:00.483Z,100.00
2023-08-30T00:11:00.461Z,100.00
2023-08-30T00:12:00.498Z,100.00
2023-08-30T00:13:00.502Z,100.00
2023-08-30T00:18:19.370Z,100.00
2023-08-30T00:19:20.328Z,100.00
2023-08-30T00:20:20.339Z,100.00
2023-08-30T00:21:20.310Z,100.00
2023-08-30T00:22:20.319Z,100.00
2023-08-30T00:23:20.292Z,100.00
2023-08-30T00:24:20.285Z,100.00
2023-08-30T00:25:20.295Z,100.00
2023-08-30T00:26:20.257Z,100.00
2023-08-30T00:27:20.250Z,100.00
2023-08-30T00:28:20.231Z,100.00
2023-08-30T00:29:20.256Z,100.00
2023-08-30T00:30:20.229Z,100.00
2023-08-30T00:31:20.223Z,100.00
2023-08-30T00:32:20.205Z,100.00
2023-08-30T00:33:20.191Z,100.00
2023-08-30T00:34:20.191Z,100.00
2023-08-30T00:35:20.181Z,100.00
2023-08-30T00:36:20.174Z,100.00
2023-08-30T00:37:20.178Z,100.00
2023-08-30T00:38:20.138Z,100.00
2023-08-30T00:39:20.111Z,100.00
2023-08-30T00:40:20.098Z,100.00
2023-08-30T00:41:20.112Z,100.00
2023-08-30T00:42:20.150Z,100.00
2023-08-30T00:43:20.060Z,100.00
2023-08-30T00:44:20.108Z,100.00
2023-08-30T00:45:20.074Z,100.00
2023-08-30T00:46:20.102Z,100.00
2023-08-30T00:47:20.056Z,100.00
2023-08-30T00:48:20.101Z,100.00
2023-08-30T00:49:20.008Z,100.00
2023-08-30T00:50:20.015Z,100.00
2023-08-30T00:51:20.003Z,100.00
2023-08-30T00:52:19.974Z,100.00
2023-08-30T00:53:20.024Z,100.00
2023-08-30T00:54:19.942Z,100.00
2023-08-30T00:55:19.942Z,100.00
2023-08-30T00:56:20.007Z,100.00
2023-08-30T00:57:19.943Z,100.00
2023-08-30T00:58:19.949Z,100.00
2023-08-30T00:59:19.921Z,100.00
2023-08-30T01:00:19.911Z,100.00
2023-08-30T01:01:19.890Z,100.00
2023-08-30T01:02:19.886Z,100.00
2023-08-30T01:03:19.941Z,100.00
2023-08-30T01:04:19.875Z,100.00
2023-08-30T01:05:19.848Z,100.00
2023-08-30T01:06:19.839Z,100.00
2023-08-30T01:07:19.804Z,100.00
2023-08-30T01:08:19.866Z,100.00
2023-08-30T01:09:19.837Z,100.00
2023-08-30T01:10:19.802Z,100.00
2023-08-30T01:11:19.771Z,100.00
2023-08-30T01:12:19.794Z,100.00
2023-08-30T01:13:19.789Z,100.00
2023-08-30T01:14:19.804Z,100.00
2023-08-30T01:15:19.743Z,100.00
2023-08-30T01:16:19.788Z,100.00
2023-08-30T01:17:19.707Z,100.00
2023-08-30T01:18:19.743Z,100.00
2023-08-30T01:19:19.730Z,100.00
2023-08-30T01:20:19.745Z,100.00
2023-08-30T01:21:19.672Z,100.00
2023-08-30T01:22:19.676Z,100.00
2023-08-30T01:23:19.648Z,100.00
2023-08-30T01:24:19.670Z,100.00
2023-08-30T01:25:19.621Z,100.00
2023-08-30T01:26:19.621Z,100.00
2023-08-30T01:27:19.600Z,100.00
2023-08-30T01:28:19.613Z,100.00
2023-08-30T01:29:19.614Z,100.00
2023-08-30T01:30:19.602Z,100.00
2023-08-30T01:31:19.574Z,100.00
2023-08-30T01:32:19.570Z,100.00
2023-08-30T01:33:19.536Z,100.00
2023-08-30T01:34:19.618Z,100.00
2023-08-30T01:35:19.501Z,100.00
2023-08-30T01:36:19.513Z,100.00
2023-08-30T01:37:19.514Z,100.00
2023-08-30T01:38:19.494Z,100.00
2023-08-30T01:39:19.481Z,100.00
2023-08-30T01:40:19.496Z,100.00
2023-08-30T01:41:19.491Z,100.00
2023-08-30T01:42:19.470Z,100.00
2023-08-30T01:43:19.438Z,100.00
2023-08-30T01:44:19.456Z,100.00
2023-08-30T01:45:19.452Z,100.00
2023-08-30T01:46:19.538Z,100.00
2023-08-30T01:47:19.406Z,100.00
2023-08-30T01:48:19.395Z,100.00
2023-08-30T01:49:19.394Z,100.00
2023-08-30T01:50:19.361Z,100.00
2023-08-30T01:51:19.389Z,100.00
2023-08-30T01:52:19.362Z,100.00
2023-08-30T01:53:19.318Z,100.00
2023-08-30T01:54:19.351Z,100.00
2023-08-30T01:55:19.328Z,100.00
2023-08-30T01:56:19.335Z,100.00
2023-08-30T01:57:19.315Z,100.00
2023-08-30T01:58:19.279Z,100.00
2023-08-30T01:59:19.256Z,100.00
2023-08-30T02:00:19.274Z,100.00
2023-08-30T02:01:19.309Z,100.00
2023-08-30T02:02:19.268Z,100.00
2023-08-30T02:03:19.233Z,100.00
2023-08-30T02:04:19.233Z,100.00
2023-08-30T02:05:19.258Z,100.00
2023-08-30T02:06:19.225Z,100.00
2023-08-30T02:07:19.214Z,100.00
2023-08-30T02:08:19.167Z,100.00
2023-08-30T02:09:19.143Z,100.00
2023-08-30T02:10:19.155Z,100.00
2023-08-30T02:12:29.323Z,100.00
2023-08-30T02:13:30.308Z,100.00
2023-08-30T02:14:30.309Z,100.00
2023-08-30T02:15:30.296Z,100.00
2023-08-30T02:16:30.275Z,100.00
2023-08-30T02:17:30.309Z,100.00
2023-08-30T02:18:31.660Z,100.00
2023-08-30T02:19:30.231Z,100.00
2023-08-30T02:20:30.238Z,100.00
2023-08-30T02:21:30.233Z,100.00
2023-08-30T02:22:30.211Z,100.00
2023-08-30T02:23:30.223Z,100.00
2023-08-30T02:24:30.199Z,100.00
2023-08-30T02:25:30.197Z,100.00
2023-08-30T02:26:30.157Z,100.00
2023-08-30T02:27:30.168Z,100.00
2023-08-30T02:28:30.159Z,100.00
2023-08-30T02:29:30.158Z,100.00
2023-08-30T02:30:30.129Z,100.00
2023-08-30T02:31:30.195Z,100.00
2023-08-30T02:32:30.095Z,100.00
2023-08-30T02:33:30.115Z,100.00
2023-08-30T02:34:30.068Z,100.00
2023-08-30T02:35:30.088Z,100.00
2023-08-30T02:36:30.049Z,100.00
2023-08-30T02:37:30.065Z,100.00
2023-08-30T02:38:30.057Z,100.00
2023-08-30T02:39:30.080Z,100.00
2023-08-30T02:40:29.998Z,100.00
2023-08-30T02:41:29.988Z,100.00
2023-08-30T02:42:30.011Z,100.00
2023-08-30T02:43:30.000Z,100.00
2023-08-30T02:44:29.965Z,100.00
2023-08-30T02:45:29.973Z,100.00
2023-08-30T02:46:29.954Z,100.00
2023-08-30T02:47:29.970Z,100.00
2023-08-30T02:48:29.960Z,100.00
2023-08-30T02:49:29.907Z,100.00
2023-08-30T02:50:29.957Z,100.00
2023-08-30T02:51:29.888Z,100.00
2023-08-30T02:52:29.873Z,100.00
2023-08-30T02:53:29.898Z,100.00
2023-08-30T02:54:29.848Z,100.00
2023-08-30T02:55:29.879Z,100.00
2023-08-30T02:56:29.878Z,100.00
2023-08-30T02:57:29.835Z,100.00
2023-08-30T02:58:32.152Z,100.00
2023-08-30T02:59:29.837Z,100.00
2023-08-30T03:00:29.823Z,100.00
2023-08-30T03:01:29.854Z,100.00
2023-08-30T03:02:29.939Z,100.00
2023-08-30T03:03:29.828Z,100.00
2023-08-30T03:04:29.732Z,100.00
2023-08-30T03:05:29.743Z,100.00
2023-08-30T03:06:29.780Z,100.00
2023-08-30T03:07:29.755Z,100.00
2023-08-30T03:08:29.704Z,100.00
2023-08-30T03:09:29.731Z,100.00
2023-08-30T03:10:29.706Z,100.00
2023-08-30T03:11:29.672Z,100.00
2023-08-30T03:12:29.730Z,100.00
2023-08-30T03:13:29.663Z,100.00
2023-08-30T03:14:29.676Z,100.00
2023-08-30T03:15:29.648Z,100.00
2023-08-30T03:16:29.632Z,100.00
2023-08-30T03:17:32.589Z,100.00
2023-08-30T03:18:29.638Z,100.00
2023-08-30T03:19:29.615Z,100.00
2023-08-30T03:20:29.584Z,99.93
2023-08-30T03:21:29.582Z,99.86
2023-08-30T03:22:29.592Z,99.96
2023-08-30T03:23:29.607Z,99.99
2023-08-30T03:24:29.541Z,99.97
2023-08-30T03:25:29.544Z,100.00
2023-08-30T03:26:29.575Z,100.00
2023-08-30T03:27:29.509Z,100.00
2023-08-30T03:28:29.562Z,99.94
2023-08-30T03:29:29.482Z,100.00
2023-08-30T03:30:29.502Z,100.00
2023-08-30T03:31:29.512Z,100.00
2023-08-30T03:32:29.500Z,100.00
2023-08-30T03:33:29.517Z,100.00
2023-08-30T03:34:29.483Z,100.00
2023-08-30T03:35:29.431Z,100.00
2023-08-30T03:36:29.428Z,100.00
2023-08-30T03:37:29.388Z,100.00
2023-08-30T03:38:29.385Z,100.00
2023-08-30T03:39:29.420Z,100.00
2023-08-30T03:40:29.390Z,100.00
2023-08-30T03:41:29.394Z,100.00
2023-08-30T03:42:29.372Z,100.00
2023-08-30T03:43:29.368Z,100.00
2023-08-30T03:44:29.387Z,100.00
2023-08-30T03:45:29.297Z,100.00
2023-08-30T03:46:29.358Z,100.00
2023-08-30T03:47:29.371Z,100.00
2023-08-30T03:48:29.293Z,100.00
2023-08-30T03:49:29.330Z,100.00
2023-08-30T03:50:29.339Z,100.00
2023-08-30T03:51:29.290Z,100.00
2023-08-30T03:52:29.256Z,100.00
2023-08-30T03:53:29.237Z,100.00
2023-08-30T03:54:29.266Z,100.00
2023-08-30T03:55:29.249Z,100.00
2023-08-30T03:56:29.253Z,100.00
2023-08-30T03:57:29.190Z,100.00
2023-08-30T03:58:29.211Z,100.00
2023-08-30T03:59:29.166Z,100.00
2023-08-30T04:00:29.195Z,100.00
2023-08-30T04:01:29.203Z,100.00
2023-08-30T04:02:29.267Z,100.00
2023-08-30T04:03:29.256Z,100.00
2023-08-30T04:04:29.123Z,100.00
2023-08-30T04:05:29.350Z,100.00
2023-08-30T04:06:29.121Z,100.00
2023-08-30T04:07:29.112Z,100.00
2023-08-30T04:08:29.085Z,100.00
2023-08-30T04:09:29.072Z,100.00
2023-08-30T04:10:29.068Z,100.00
2023-08-30T04:11:29.049Z,100.00
2023-08-30T04:12:29.074Z,100.00
2023-08-30T04:13:29.028Z,100.00
2023-08-30T04:14:29.007Z,100.00
2023-08-30T04:15:28.995Z,100.00
2023-08-30T04:16:29.003Z,100.00
2023-08-30T04:17:29.099Z,100.00
2023-08-30T04:18:28.994Z,100.00
2023-08-30T04:19:28.949Z,100.00
2023-08-30T04:20:28.920Z,100.00
2023-08-30T04:21:28.919Z,100.00
2023-08-30T04:22:28.970Z,100.00
2023-08-30T04:23:28.936Z,100.00
2023-08-30T04:24:28.893Z,100.00
2023-08-30T04:25:28.922Z,99.95
2023-08-30T04:26:28.896Z,99.74
2023-08-30T04:27:28.904Z,99.78
2023-08-30T04:28:28.854Z,99.82
2023-08-30T04:29:28.874Z,99.90
2023-08-30T04:30:28.832Z,99.88
2023-08-30T04:31:28.866Z,99.82
2023-08-30T04:32:28.899Z,99.76
2023-08-30T04:33:28.838Z,99.86
2023-08-30T04:34:28.774Z,99.95
2023-08-30T04:35:28.786Z,99.75
2023-08-30T04:36:28.838Z,99.67
2023-08-30T04:37:28.745Z,99.42
2023-08-30T04:38:28.774Z,99.18
2023-08-30T04:39:28.731Z,99.28
2023-08-30T04:40:28.726Z,99.34
2023-08-30T04:41:28.730Z,99.35
2023-08-30T04:42:28.694Z,99.26
2023-08-30T04:43:28.747Z,99.43
2023-08-30T04:44:28.701Z,99.17
2023-08-30T04:45:28.693Z,99.17
2023-08-30T04:46:28.695Z,99.46
2023-08-30T04:47:28.709Z,99.52
2023-08-30T04:48:28.700Z,99.45
2023-08-30T04:49:28.624Z,99.55
2023-08-30T04:50:28.670Z,99.68
2023-08-30T04:51:28.615Z,99.69
2023-08-30T04:52:28.650Z,99.43
2023-08-30T04:53:28.625Z,98.97
2023-08-30T04:54:28.595Z,98.38
2023-08-30T04:55:28.605Z,98.59
2023-08-30T04:56:28.558Z,98.35
2023-08-30T04:57:28.552Z,98.24
2023-08-30T04:58:28.589Z,98.47
2023-08-30T04:59:28.543Z,98.44
2023-08-30T05:00:28.620Z,98.68
2023-08-30T05:01:28.518Z,98.66
2023-08-30T05:02:28.573Z,98.56
2023-08-30T05:03:29.938Z,98.40
2023-08-30T05:04:28.512Z,98.12
2023-08-30T05:05:28.501Z,98.21
2023-08-30T05:06:28.470Z,97.93
2023-08-30T05:07:28.472Z,97.93
2023-08-30T05:08:28.442Z,97.36
2023-08-30T05:09:28.429Z,97.60
2023-08-30T05:10:28.465Z,97.69
2023-08-30T05:11:28.428Z,97.43
2023-08-30T05:12:28.400Z,97.37
2023-08-30T05:13:28.443Z,97.31
2023-08-30T05:14:28.358Z,97.42
2023-08-30T05:15:28.430Z,97.52
2023-08-30T05:16:28.438Z,97.67
2023-08-30T05:17:28.385Z,97.45
2023-08-30T05:18:28.370Z,97.08
2023-08-30T05:19:28.330Z,96.97
2023-08-30T05:20:28.364Z,96.88
2023-08-30T05:21:28.324Z,97.40
2023-08-30T05:22:28.273Z,96.83
2023-08-30T05:23:28.280Z,96.74
2023-08-30T05:24:28.270Z,96.97
2023-08-30T05:25:28.303Z,96.89
2023-08-30T05:26:28.240Z,96.83
2023-08-30T05:27:28.229Z,96.71
2023-08-30T05:28:28.222Z,96.45
2023-08-30T05:29:28.250Z,96.77
2023-08-30T05:30:28.250Z,96.76
2023-08-30T05:31:28.195Z,96.60
2023-08-30T05:32:28.229Z,96.27
2023-08-30T05:33:28.201Z,95.73
2023-08-30T05:34:28.185Z,96.16
2023-08-30T05:35:28.187Z,96.02
2023-08-30T05:36:28.148Z,96.09
2023-08-30T05:37:28.199Z,96.12
2023-08-30T05:38:28.131Z,96.06
2023-08-30T05:39:28.117Z,96.57
2023-08-30T05:40:28.144Z,96.59
2023-08-30T05:41:28.123Z,96.48
2023-08-30T05:42:28.116Z,96.57
2023-08-30T05:43:28.065Z,96.33
2023-08-30T05:44:28.113Z,95.86
2023-08-30T05:45:28.056Z,95.16
2023-08-30T05:46:28.090Z,95.45
2023-08-30T05:47:28.011Z,95.51
2023-08-30T05:48:28.006Z,95.83
2023-08-30T05:49:27.970Z,95.82
2023-08-30T05:50:28.158Z,95.87
2023-08-30T05:51:27.982Z,95.65
2023-08-30T05:52:27.979Z,95.52
2023-08-30T05:53:27.968Z,95.39
2023-08-30T05:54:27.954Z,95.32
2023-08-30T05:55:27.948Z,95.67
2023-08-30T05:56:27.970Z,96.05
2023-08-30T05:57:27.914Z,95.76
2023-08-30T05:58:27.907Z,96.01
2023-08-30T05:59:27.894Z,95.80
2023-08-30T06:00:27.936Z,96.10
2023-08-30T06:01:27.905Z,95.74
2023-08-30T06:02:27.896Z,96.12
2023-08-30T06:03:27.970Z,96.08
2023-08-30T06:04:27.848Z,96.06
2023-08-30T06:05:27.878Z,96.42
2023-08-30T06:06:27.865Z,95.82
2023-08-30T06:07:27.838Z,95.83
2023-08-30T06:08:27.883Z,95.88
2023-08-30T06:09:27.792Z,96.05
2023-08-30T06:10:27.816Z,96.31
2023-08-30T06:11:27.803Z,96.25
2023-08-30T06:12:27.787Z,95.59
2023-08-30T06:13:27.729Z,95.28
2023-08-30T06:14:27.726Z,95.45
2023-08-30T06:15:27.722Z,95.23
2023-08-30T06:16:27.794Z,94.87
2023-08-30T06:17:27.782Z,95.12
2023-08-30T06:18:27.731Z,95.13
2023-08-30T06:19:27.699Z,94.81
2023-08-30T06:20:27.696Z,95.24
2023-08-30T06:21:27.690Z,95.43
2023-08-30T06:22:27.681Z,94.71
2023-08-30T06:23:27.659Z,94.69
2023-08-30T06:24:27.629Z,94.59
2023-08-30T06:25:27.620Z,94.35
2023-08-30T06:26:27.624Z,94.06
2023-08-30T06:27:27.610Z,93.74
2023-08-30T06:28:27.575Z,94.44
2023-08-30T06:29:27.599Z,94.13
2023-08-30T06:30:27.573Z,95.31
2023-08-30T06:31:27.677Z,95.47
2023-08-30T06:32:27.644Z,94.85
2023-08-30T06:33:27.529Z,95.14
2023-08-30T06:34:27.515Z,95.62
2023-08-30T06:35:27.538Z,94.63
2023-08-30T06:36:27.492Z,94.26
2023-08-30T06:37:27.507Z,94.20
2023-08-30T06:38:27.514Z,94.00
2023-08-30T06:39:27.475Z,94.31
2023-08-30T06:40:27.465Z,94.80
2023-08-30T06:41:27.469Z,94.37
2023-08-30T06:42:27.469Z,92.92
2023-08-30T06:43:27.423Z,93.17
2023-08-30T06:44:27.421Z,94.06
2023-08-30T06:45:27.396Z,94.32
2023-08-30T06:46:27.415Z,94.52
2023-08-30T06:47:27.471Z,94.49
2023-08-30T06:48:27.384Z,94.37
2023-08-30T06:49:27.417Z,94.32
2023-08-30T06:50:27.417Z,93.52
2023-08-30T06:51:27.338Z,94.31
2023-08-30T06:52:27.357Z,93.75
2023-08-30T06:53:27.375Z,93.82
2023-08-30T06:54:27.372Z,93.20
2023-08-30T06:55:27.341Z,93.87
2023-08-30T06:56:27.334Z,92.73
2023-08-30T06:57:27.352Z,92.82
2023-08-30T06:58:27.368Z,92.84
2023-08-30T06:59:27.242Z,93.32
2023-08-30T07:00:27.272Z,94.20
2023-08-30T07:01:27.335Z,92.90
2023-08-30T07:02:27.212Z,93.57
2023-08-30T07:03:27.276Z,93.45
2023-08-30T07:04:27.243Z,92.83
2023-08-30T07:05:27.216Z,92.09
2023-08-30T07:06:27.183Z,91.75
2023-08-30T07:07:27.168Z,92.58
2023-08-30T07:08:27.233Z,93.26
2023-08-30T07:09:27.133Z,92.44
2023-08-30T07:10:27.137Z,92.28
2023-08-30T07:11:33.842Z,91.97
2023-08-30T07:12:27.146Z,92.67
2023-08-30T07:13:27.112Z,93.02
2023-08-30T07:14:27.110Z,93.08
2023-08-30T07:15:27.070Z,92.68
2023-08-30T07:16:27.051Z,92.92
2023-08-30T07:17:29.249Z,92.02
2023-08-30T07:18:27.149Z,93.32
2023-08-30T07:19:27.031Z,92.67
2023-08-30T07:20:27.041Z,93.37
2023-08-30T07:21:27.073Z,93.43
2023-08-30T07:22:26.980Z,93.22
2023-08-30T07:23:27.037Z,93.28
2023-08-30T07:24:27.053Z,93.66
2023-08-30T07:25:26.989Z,93.25
2023-08-30T07:26:26.986Z,93.74
2023-08-30T07:27:26.980Z,93.77
2023-08-30T07:28:26.940Z,92.94
2023-08-30T07:29:26.966Z,93.11
2023-08-30T07:30:26.937Z,93.44
2023-08-30T07:31:26.971Z,93.41
2023-08-30T07:32:26.929Z,93.84
2023-08-30T07:33:26.901Z,93.29
2023-08-30T07:34:26.894Z,93.84
2023-08-30T07:35:26.956Z,94.27
2023-08-30T07:36:37.286Z,94.19
2023-08-30T07:37:26.857Z,93.73
2023-08-30T07:38:26.852Z,93.00
2023-08-30T07:39:26.850Z,93.63
2023-08-30T07:40:26.843Z,93.79
2023-08-30T07:41:26.990Z,93.28
2023-08-30T07:42:26.844Z,93.56
2023-08-30T07:43:26.765Z,93.33
2023-08-30T07:44:26.769Z,92.83
2023-08-30T07:45:26.810Z,92.33
2023-08-30T07:46:26.741Z,92.34
2023-08-30T07:47:26.760Z,92.12
2023-08-30T07:48:26.728Z,92.34
2023-08-30T07:49:26.708Z,91.80
2023-08-30T07:50:26.754Z,91.89
2023-08-30T07:51:26.724Z,92.42
2023-08-30T07:52:39.393Z,92.64
2023-08-30T07:53:26.660Z,93.04
2023-08-30T07:54:26.694Z,91.80
2023-08-30T07:55:26.654Z,92.34
2023-08-30T07:56:26.682Z,92.87
2023-08-30T07:57:26.619Z,91.94
2023-08-30T07:58:26.623Z,90.99
2023-08-30T07:59:26.633Z,90.85
2023-08-30T08:00:26.575Z,89.89
2023-08-30T08:01:26.704Z,90.01
2023-08-30T08:02:26.600Z,90.88
2023-08-30T08:03:26.564Z,90.46
2023-08-30T08:04:26.581Z,90.88
2023-08-30T08:05:26.649Z,90.16
2023-08-30T08:06:26.533Z,89.62
2023-08-30T08:07:28.931Z,90.82
2023-08-30T08:08:26.550Z,89.88
2023-08-30T08:09:26.488Z,89.31
2023-08-30T08:10:26.474Z,90.32
2023-08-30T08:11:26.459Z,90.13
2023-08-30T08:12:26.503Z,89.51
2023-08-30T08:13:26.497Z,89.21
2023-08-30T08:14:26.674Z,90.83
2023-08-30T08:15:26.521Z,89.14
2023-08-30T08:16:26.422Z,89.19
2023-08-30T08:17:26.469Z,88.97
2023-08-30T08:18:26.437Z,89.25
2023-08-30T08:19:26.618Z,88.98
2023-08-30T08:20:26.355Z,88.36
2023-08-30T08:21:26.410Z,87.74
2023-08-30T08:22:26.368Z,87.62
2023-08-30T08:23:26.371Z,89.11
2023-08-30T08:24:26.336Z,88.41
2023-08-30T08:25:26.326Z,88.70
2023-08-30T08:26:26.410Z,88.24
2023-08-30T08:27:26.447Z,88.57
2023-08-30T08:28:26.283Z,88.53
2023-08-30T08:29:26.310Z,87.81
2023-08-30T08:30:26.273Z,87.75
2023-08-30T08:31:26.267Z,88.13
2023-08-30T08:32:26.429Z,87.23
2023-08-30T08:33:26.274Z,88.26
2023-08-30T08:34:26.259Z,87.18
2023-08-30T08:35:26.213Z,86.81
2023-08-30T08:36:26.259Z,86.43
2023-08-30T08:37:26.229Z,86.00
2023-08-30T08:38:26.186Z,87.36
2023-08-30T08:39:26.208Z,87.30
2023-08-30T08:40:41.255Z,88.07
2023-08-30T08:41:26.168Z,87.63
2023-08-30T08:42:26.169Z,88.51
2023-08-30T08:43:26.124Z,87.64
2023-08-30T08:44:26.173Z,87.14
2023-08-30T08:45:26.121Z,86.45
2023-08-30T08:46:26.135Z,87.52
2023-08-30T08:47:26.126Z,88.41
2023-08-30T08:48:26.104Z,88.15
2023-08-30T08:49:26.123Z,86.84
2023-08-30T08:50:26.072Z,87.64
2023-08-30T08:51:26.039Z,87.34
2023-08-30T08:52:31.715Z,87.82
2023-08-30T08:53:26.030Z,88.13
2023-08-30T08:54:26.073Z,87.43
2023-08-30T08:55:26.009Z,86.52
2023-08-30T08:56:26.894Z,86.41
2023-08-30T08:57:25.997Z,87.15
2023-08-30T08:58:25.974Z,86.72
2023-08-30T08:59:25.973Z,86.05
2023-08-30T09:00:25.978Z,85.24
2023-08-30T09:01:34.796Z,86.03
2023-08-30T09:02:25.923Z,86.79
2023-08-30T09:03:25.990Z,84.61
2023-08-30T09:04:25.919Z,86.64
2023-08-30T09:05:25.936Z,87.18
2023-08-30T09:06:25.922Z,85.30
2023-08-30T09:07:25.881Z,85.03
2023-08-30T09:08:25.868Z,84.90
2023-08-30T09:09:25.854Z,83.60
2023-08-30T09:10:25.864Z,84.59
2023-08-30T09:11:39.964Z,83.79
2023-08-30T09:12:25.847Z,85.18
2023-08-30T09:13:25.835Z,84.36
2023-08-30T09:14:25.795Z,84.18
2023-08-30T09:15:25.818Z,83.84
2023-08-30T09:16:25.836Z,84.74
2023-08-30T09:17:25.793Z,83.73
2023-08-30T09:18:25.768Z,84.01
2023-08-30T09:19:25.844Z,84.16
2023-08-30T09:20:25.746Z,83.81
2023-08-30T09:21:25.767Z,83.86
2023-08-30T09:22:25.709Z,85.00
2023-08-30T09:23:25.699Z,86.21
2023-08-30T09:24:25.682Z,84.61
2023-08-30T09:25:25.658Z,84.19
2023-08-30T09:26:25.708Z,83.94
2023-08-30T09:27:25.701Z,85.04
2023-08-30T09:28:25.664Z,84.34
2023-08-30T09:29:25.627Z,84.23
2023-08-30T09:30:25.639Z,84.25
2023-08-30T09:31:25.704Z,83.85
2023-08-30T09:32:25.690Z,84.65
2023-08-30T09:33:25.626Z,84.64
2023-08-30T09:34:25.648Z,82.80
2023-08-30T09:35:25.589Z,82.96
2023-08-30T09:36:25.577Z,83.78
2023-08-30T09:37:25.573Z,82.09
2023-08-30T09:38:25.583Z,82.20
2023-08-30T09:39:25.584Z,81.66
2023-08-30T09:40:25.552Z,83.35
2023-08-30T09:41:25.486Z,82.43
2023-08-30T09:42:25.493Z,83.88
2023-08-30T09:43:25.577Z,82.98
2023-08-30T09:44:25.652Z,83.14
2023-08-30T09:45:25.509Z,82.16
2023-08-30T09:46:34.084Z,81.04
2023-08-30T09:47:25.597Z,81.30
2023-08-30T09:48:25.423Z,81.15
2023-08-30T09:49:25.544Z,81.85
2023-08-30T09:50:25.425Z,83.15
2023-08-30T09:51:25.429Z,83.30
2023-08-30T09:52:25.400Z,83.69
2023-08-30T09:53:25.471Z,82.41
2023-08-30T09:55:25.400Z,81.47
2023-08-30T09:56:25.381Z,80.82
2023-08-30T09:57:25.360Z,82.70
2023-08-30T09:58:25.329Z,82.86
2023-08-30T09:59:25.307Z,81.50
2023-08-30T10:00:25.320Z,80.97
2023-08-30T10:01:25.324Z,81.34
2023-08-30T10:02:25.374Z,82.67
2023-08-30T10:03:31.013Z,82.48
2023-08-30T10:04:25.342Z,83.71
2023-08-30T10:05:25.333Z,83.84
2023-08-30T10:06:25.264Z,82.83
2023-08-30T10:07:25.224Z,82.00
2023-08-30T10:08:25.209Z,80.46
2023-08-30T10:09:25.201Z,81.61
2023-08-30T10:10:25.218Z,81.59
2023-08-30T10:11:25.271Z,78.57
2023-08-30T10:12:25.212Z,78.28
2023-08-30T10:13:25.195Z,78.77
2023-08-30T10:14:25.184Z,76.68
2023-08-30T10:15:25.226Z,79.12
2023-08-30T10:16:25.199Z,78.34
2023-08-30T10:17:25.247Z,73.59
2023-08-30T10:18:25.148Z,75.36
2023-08-30T10:19:25.143Z,76.18
2023-08-30T10:20:25.105Z,73.21
2023-08-30T10:21:25.073Z,73.26
2023-08-30T10:22:25.106Z,74.49
2023-08-30T10:23:25.069Z,71.29
2023-08-30T10:24:33.541Z,74.11
2023-08-30T10:31:19.228Z,75.89
2023-08-30T10:31:27.082Z,79.25
2023-08-30T10:32:25.308Z,77.94
2023-08-30T10:33:25.273Z,78.39
2023-08-30T10:34:25.258Z,77.66
2023-08-30T10:35:25.213Z,78.29
2023-08-30T10:36:25.211Z,76.43
2023-08-30T10:37:25.214Z,78.57
2023-08-30T10:38:25.194Z,77.46
2023-08-30T10:39:25.170Z,77.98
2023-08-30T10:40:25.180Z,78.78
2023-08-30T10:41:25.208Z,79.02
2023-08-30T10:42:25.184Z,78.98
2023-08-30T10:43:25.196Z,80.43
2023-08-30T10:44:25.113Z,79.51
2023-08-30T10:45:25.105Z,79.33
2023-08-30T10:46:25.196Z,80.07
2023-08-30T10:47:25.146Z,80.60
2023-08-30T10:48:25.134Z,81.90
2023-08-30T10:49:25.060Z,82.52
2023-08-30T10:50:25.049Z,83.64
2023-08-30T10:51:25.030Z,81.44
2023-08-30T10:52:25.090Z,82.55
2023-08-30T10:53:25.083Z,82.34
2023-08-30T10:54:25.014Z,82.69
2023-08-30T10:55:25.051Z,82.63
2023-08-30T10:56:25.006Z,83.38
2023-08-30T10:57:24.983Z,83.78
2023-08-30T10:58:25.018Z,84.00
2023-08-30T10:59:24.954Z,82.16
2023-08-30T11:00:24.944Z,82.54
2023-08-30T11:01:24.968Z,82.83
2023-08-30T11:02:24.921Z,83.60
2023-08-30T11:03:24.981Z,82.56
2023-08-30T11:04:24.883Z,83.48
2023-08-30T11:05:25.019Z,83.36
2023-08-30T11:06:24.901Z,83.35
2023-08-30T11:07:24.881Z,82.76
2023-08-30T11:08:24.910Z,82.19
2023-08-30T11:09:24.837Z,83.35
2023-08-30T11:10:24.831Z,82.56
2023-08-30T11:11:24.834Z,84.09
2023-08-30T11:12:24.844Z,83.47
2023-08-30T11:13:25.705Z,81.44
2023-08-30T11:14:24.862Z,83.05
2023-08-30T11:15:24.775Z,81.75
2023-08-30T11:16:24.830Z,81.15
2023-08-30T11:17:24.772Z,82.12
2023-08-30T11:18:24.778Z,81.61
2023-08-30T11:19:25.670Z,82.06
2023-08-30T11:20:24.808Z,81.83
2023-08-30T11:21:24.726Z,81.52
2023-08-30T11:22:24.717Z,81.34
2023-08-30T11:23:24.705Z,81.89
2023-08-30T11:24:24.682Z,82.44
2023-08-30T11:25:24.697Z,82.60
2023-08-30T11:26:24.650Z,82.55
2023-08-30T11:27:24.662Z,82.09
2023-08-30T11:28:24.651Z,82.49
2023-08-30T11:29:24.645Z,83.54
2023-08-30T11:30:24.661Z,82.64
2023-08-30T11:31:24.657Z,83.07
2023-08-30T11:32:24.609Z,83.06
2023-08-30T11:33:24.621Z,82.50
2023-08-30T11:34:24.597Z,83.55
2023-08-30T11:35:24.565Z,82.93
2023-08-30T11:36:24.603Z,82.19
2023-08-30T11:37:24.577Z,82.64
2023-08-30T11:38:24.525Z,81.85
2023-08-30T11:39:24.567Z,81.69
2023-08-30T11:40:24.543Z,81.33
2023-08-30T11:41:24.668Z,81.14
2023-08-30T11:42:24.500Z,81.17
2023-08-30T11:43:24.492Z,80.32
2023-08-30T11:44:24.496Z,79.47
2023-08-30T11:45:24.485Z,80.00
2023-08-30T11:46:24.487Z,79.23
2023-08-30T11:47:24.504Z,79.23
2023-08-30T11:48:24.457Z,77.30
2023-08-30T11:49:24.441Z,76.82
2023-08-30T11:50:25.965Z,74.40
2023-08-30T11:51:24.417Z,76.26
2023-08-30T11:52:24.401Z,76.55
2023-08-30T11:53:24.413Z,77.56
2023-08-30T11:54:24.358Z,76.05
2023-08-30T11:55:24.397Z,75.59
2023-08-30T11:56:24.421Z,75.38
2023-08-30T11:57:24.360Z,74.41
2023-08-30T11:58:24.348Z,73.73
2023-08-30T11:59:24.302Z,74.92
2023-08-30T12:00:24.316Z,77.28
2023-08-30T12:01:24.337Z,74.24
2023-08-30T12:02:24.294Z,73.64
2023-08-30T12:03:24.298Z,75.15
2023-08-30T12:04:24.302Z,74.54
2023-08-30T12:05:24.269Z,75.28
2023-08-30T12:06:24.343Z,76.91
2023-08-30T12:07:24.517Z,76.89
2023-08-30T12:08:24.264Z,76.83
2023-08-30T12:09:24.209Z,76.54
2023-08-30T12:10:24.249Z,75.70
2023-08-30T12:11:24.221Z,75.63
2023-08-30T12:12:24.197Z,76.44
2023-08-30T12:13:24.190Z,76.34
2023-08-30T12:14:24.167Z,76.03
2023-08-30T12:15:24.117Z,76.20
2023-08-30T12:16:24.153Z,78.02
2023-08-30T12:17:24.118Z,76.62
2023-08-30T12:18:24.101Z,77.01
2023-08-30T12:19:24.117Z,77.36
2023-08-30T12:20:24.087Z,77.72
2023-08-30T12:21:24.113Z,78.10
2023-08-30T12:22:24.107Z,77.88
2023-08-30T12:23:24.105Z,79.01
2023-08-30T12:24:24.160Z,79.62
2023-08-30T12:25:24.060Z,79.69
2023-08-30T12:26:24.000Z,80.18
2023-08-30T12:27:24.025Z,80.43
2023-08-30T12:28:24.030Z,81.03
2023-08-30T12:29:24.049Z,80.85
2023-08-30T12:30:24.028Z,80.50
2023-08-30T12:31:24.014Z,80.36
2023-08-30T12:32:23.990Z,80.40
2023-08-30T12:33:23.998Z,81.74
2023-08-30T12:34:23.944Z,82.07
2023-08-30T12:35:23.980Z,81.16
2023-08-30T12:36:23.910Z,81.66
2023-08-30T12:37:23.924Z,82.01
2023-08-30T12:38:23.899Z,81.90
2023-08-30T12:39:23.887Z,83.04
2023-08-30T12:40:23.937Z,83.32
2023-08-30T12:41:23.976Z,83.23
2023-08-30T12:42:23.862Z,82.95
2023-08-30T12:43:23.820Z,83.82
2023-08-30T12:44:23.861Z,84.22
2023-08-30T12:45:23.882Z,85.18
2023-08-30T12:46:23.831Z,84.54
2023-08-30T12:47:23.853Z,84.24
2023-08-30T12:48:23.814Z,85.72
2023-08-30T12:49:23.804Z,86.94
2023-08-30T12:50:23.785Z,85.68
2023-08-30T12:51:23.808Z,83.68
2023-08-30T12:52:23.774Z,84.58
2023-08-30T12:53:23.802Z,84.56
2023-08-30T12:54:23.724Z,85.29
2023-08-30T12:55:23.741Z,86.02